sensor_id;sensor_type;location;lat;lon;timestamp;P1;durP1;ratioP1;P2;durP2;ratioP2
75900;SDS011;64577;50.594;5.570;2022-10-31T04:22:21;8.00;;;3.90;;
75900;SDS011;64577;50.594;5.570;2022-10-31T04:24:47;7.80;;;3.75;;
75900;SDS011;64577;50.594;5.570;2022-10-31T04:27:12;9.88;;;3.97;;
75900;SDS011;64577;50.594;5.570;2022-10-31T04:29:37;9.27;;;4.10;;
75900;SDS011;64577;50.594;5.570;2022-10-31T04:32:03;7.03;;;3.63;;
75900;SDS011;64577;50.594;5.570;2022-10-31T04:34:28;8.55;;;3.83;;
75900;SDS011;64577;50.594;5.570;2022-10-31T04:36:53;9.70;;;3.83;;
75900;SDS011;64577;50.594;5.570;2022-10-31T04:39:19;7.38;;;3.70;;
75900;SDS011;64577;50.594;5.570;2022-10-31T04:41:44;7.82;;;4.40;;
75900;SDS011;64577;50.594;5.570;2022-10-31T04:44:09;7.55;;;4.18;;
75900;SDS011;64577;50.594;5.570;2022-10-31T04:46:35;8.07;;;3.92;;
75900;SDS011;64577;50.594;5.570;2022-10-31T04:49:00;7.55;;;3.40;;
75900;SDS011;64577;50.594;5.570;2022-10-31T04:51:25;7.53;;;3.60;;
75900;SDS011;64577;50.594;5.570;2022-10-31T04:53:51;8.43;;;3.70;;
75900;SDS011;64577;50.594;5.570;2022-10-31T04:56:16;6.97;;;3.28;;
75900;SDS011;64577;50.594;5.570;2022-10-31T04:58:42;6.20;;;3.20;;
75900;SDS011;64577;50.594;5.570;2022-10-31T05:01:07;8.02;;;3.60;;
75900;SDS011;64577;50.594;5.570;2022-10-31T05:03:32;7.40;;;3.33;;
75900;SDS011;64577;50.594;5.570;2022-10-31T05:05:57;7.53;;;3.78;;
75900;SDS011;64577;50.594;5.570;2022-10-31T05:08:23;7.57;;;3.75;;
75900;SDS011;64577;50.594;5.570;2022-10-31T05:10:48;7.28;;;3.97;;
75900;SDS011;64577;50.594;5.570;2022-10-31T05:13:13;7.05;;;3.40;;
75900;SDS011;64577;50.594;5.570;2022-10-31T05:15:40;6.65;;;3.28;;
75900;SDS011;64577;50.594;5.570;2022-10-31T05:18:06;6.35;;;3.63;;
75900;SDS011;64577;50.594;5.570;2022-10-31T05:20:31;7.13;;;3.70;;
75900;SDS011;64577;50.594;5.570;2022-10-31T05:22:58;7.18;;;3.72;;
75900;SDS011;64577;50.594;5.570;2022-10-31T05:25:25;7.35;;;3.50;;
75900;SDS011;64577;50.594;5.570;2022-10-31T05:27:52;10.00;;;4.43;;
75900;SDS011;64577;50.594;5.570;2022-10-31T05:30:20;6.63;;;3.65;;
75900;SDS011;64577;50.594;5.570;2022-10-31T05:32:48;7.50;;;3.70;;
75900;SDS011;64577;50.594;5.570;2022-10-31T05:35:16;7.65;;;3.75;;
75900;SDS011;64577;50.594;5.570;2022-10-31T05:37:46;7.78;;;3.80;;
75900;SDS011;64577;50.594;5.570;2022-10-31T05:40:12;7.78;;;3.00;;
75900;SDS011;64577;50.594;5.570;2022-10-31T05:42:39;6.82;;;3.47;;
75900;SDS011;64577;50.594;5.570;2022-10-31T05:45:06;6.55;;;3.42;;
75900;SDS011;64577;50.594;5.570;2022-10-31T05:47:32;9.77;;;3.88;;
75900;SDS011;64577;50.594;5.570;2022-10-31T05:49:58;7.82;;;3.58;;
75900;SDS011;64577;50.594;5.570;2022-10-31T05:52:23;7.70;;;3.95;;
75900;SDS011;64577;50.594;5.570;2022-10-31T05:54:48;5.85;;;3.45;;
75900;SDS011;64577;50.594;5.570;2022-10-31T05:57:14;10.77;;;4.20;;
75900;SDS011;64577;50.594;5.570;2022-10-31T05:59:39;7.20;;;3.33;;
75900;SDS011;64577;50.594;5.570;2022-10-31T06:02:04;7.30;;;3.42;;
75900;SDS011;64577;50.594;5.570;2022-10-31T06:04:30;7.30;;;3.47;;
75900;SDS011;64577;50.594;5.570;2022-10-31T06:06:56;8.48;;;3.50;;
75900;SDS011;64577;50.594;5.570;2022-10-31T06:09:21;8.65;;;3.40;;
75900;SDS011;64577;50.594;5.570;2022-10-31T06:11:47;7.32;;;3.63;;
75900;SDS011;64577;50.594;5.570;2022-10-31T06:14:12;6.88;;;3.38;;
75900;SDS011;64577;50.594;5.570;2022-10-31T06:16:37;8.95;;;3.83;;
75900;SDS011;64577;50.594;5.570;2022-10-31T06:19:03;9.35;;;3.35;;
75900;SDS011;64577;50.594;5.570;2022-10-31T06:21:28;7.55;;;3.58;;
75900;SDS011;64577;50.594;5.570;2022-10-31T06:23:53;7.50;;;3.40;;
75900;SDS011;64577;50.594;5.570;2022-10-31T06:26:19;6.53;;;3.45;;
75900;SDS011;64577;50.594;5.570;2022-10-31T06:28:44;7.07;;;3.20;;
75900;SDS011;64577;50.594;5.570;2022-10-31T06:31:09;8.05;;;3.80;;
75900;SDS011;64577;50.594;5.570;2022-10-31T06:33:35;8.70;;;3.65;;
75900;SDS011;64577;50.594;5.570;2022-10-31T06:36:00;8.93;;;3.60;;
75900;SDS011;64577;50.594;5.570;2022-10-31T06:38:26;6.40;;;3.67;;
75900;SDS011;64577;50.594;5.570;2022-10-31T06:40:52;7.32;;;3.53;;
75900;SDS011;64577;50.594;5.570;2022-10-31T06:43:18;6.97;;;3.50;;
75900;SDS011;64577;50.594;5.570;2022-10-31T06:45:44;7.30;;;3.42;;
75900;SDS011;64577;50.594;5.570;2022-10-31T06:48:10;11.00;;;4.00;;
75900;SDS011;64577;50.594;5.570;2022-10-31T06:50:35;7.68;;;3.65;;
75900;SDS011;64577;50.594;5.570;2022-10-31T06:53:00;7.65;;;3.75;;
75900;SDS011;64577;50.594;5.570;2022-10-31T06:55:26;7.80;;;3.72;;
75900;SDS011;64577;50.594;5.570;2022-10-31T06:57:52;8.68;;;3.75;;
75900;SDS011;64577;50.594;5.570;2022-10-31T07:00:18;6.82;;;3.45;;
75900;SDS011;64577;50.594;5.570;2022-10-31T07:02:52;6.28;;;3.35;;
75900;SDS011;64577;50.594;5.570;2022-10-31T07:05:24;7.20;;;3.50;;
75900;SDS011;64577;50.594;5.570;2022-10-31T07:07:54;7.63;;;3.50;;
75900;SDS011;64577;50.594;5.570;2022-10-31T07:10:20;8.63;;;3.67;;
75900;SDS011;64577;50.594;5.570;2022-10-31T07:12:46;6.85;;;3.38;;
75900;SDS011;64577;50.594;5.570;2022-10-31T07:15:12;9.23;;;3.80;;
75900;SDS011;64577;50.594;5.570;2022-10-31T07:17:37;7.53;;;3.70;;
75900;SDS011;64577;50.594;5.570;2022-10-31T07:20:03;11.32;;;4.13;;
75900;SDS011;64577;50.594;5.570;2022-10-31T07:22:32;8.63;;;4.20;;
75900;SDS011;64577;50.594;5.570;2022-10-31T07:25:00;6.85;;;3.72;;
75900;SDS011;64577;50.594;5.570;2022-10-31T07:58:21;9.48;;;4.00;;
75900;SDS011;64577;50.594;5.570;2022-10-31T08:24:05;8.10;;;3.85;;
75900;SDS011;64577;50.594;5.570;2022-10-31T08:26:31;10.85;;;4.00;;
75900;SDS011;64577;50.594;5.570;2022-10-31T08:28:56;7.88;;;3.75;;
75900;SDS011;64577;50.594;5.570;2022-10-31T08:31:22;7.18;;;3.45;;
75900;SDS011;64577;50.594;5.570;2022-10-31T08:33:47;11.38;;;3.88;;
75900;SDS011;64577;50.594;5.570;2022-10-31T08:36:13;8.45;;;3.80;;
75900;SDS011;64577;50.594;5.570;2022-10-31T08:38:38;8.80;;;4.00;;
75900;SDS011;64577;50.594;5.570;2022-10-31T08:41:04;10.40;;;3.40;;
75900;SDS011;64577;50.594;5.570;2022-10-31T08:43:29;8.77;;;3.88;;
75900;SDS011;64577;50.594;5.570;2022-10-31T08:45:54;9.07;;;3.70;;
75900;SDS011;64577;50.594;5.570;2022-10-31T08:48:21;8.80;;;3.80;;
75900;SDS011;64577;50.594;5.570;2022-10-31T08:50:46;8.52;;;3.50;;
75900;SDS011;64577;50.594;5.570;2022-10-31T08:55:42;10.32;;;4.00;;
75900;SDS011;64577;50.594;5.570;2022-10-31T08:58:12;8.07;;;3.70;;
75900;SDS011;64577;50.594;5.570;2022-10-31T09:00:39;6.95;;;3.85;;
75900;SDS011;64577;50.594;5.570;2022-10-31T09:03:06;8.52;;;3.70;;
75900;SDS011;64577;50.594;5.570;2022-10-31T09:05:34;6.65;;;3.47;;
75900;SDS011;64577;50.594;5.570;2022-10-31T09:08:00;8.25;;;3.33;;
75900;SDS011;64577;50.594;5.570;2022-10-31T09:10:27;8.73;;;3.75;;
75900;SDS011;64577;50.594;5.570;2022-10-31T09:12:56;9.90;;;3.95;;
75900;SDS011;64577;50.594;5.570;2022-10-31T09:15:26;6.90;;;3.25;;
75900;SDS011;64577;50.594;5.570;2022-10-31T09:17:52;7.07;;;3.40;;
75900;SDS011;64577;50.594;5.570;2022-10-31T09:20:18;8.55;;;3.67;;
75900;SDS011;64577;50.594;5.570;2022-10-31T09:22:43;8.75;;;3.72;;
75900;SDS011;64577;50.594;5.570;2022-10-31T09:25:09;9.95;;;3.53;;
75900;SDS011;64577;50.594;5.570;2022-10-31T09:27:34;8.27;;;3.67;;
75900;SDS011;64577;50.594;5.570;2022-10-31T09:30:00;7.80;;;3.40;;
75900;SDS011;64577;50.594;5.570;2022-10-31T09:32:25;11.93;;;3.85;;
75900;SDS011;64577;50.594;5.570;2022-10-31T09:34:50;6.90;;;3.10;;
75900;SDS011;64577;50.594;5.570;2022-10-31T09:37:16;8.93;;;3.28;;
75900;SDS011;64577;50.594;5.570;2022-10-31T09:39:41;6.90;;;3.20;;
75900;SDS011;64577;50.594;5.570;2022-10-31T09:44:57;6.32;;;3.17;;
75900;SDS011;64577;50.594;5.570;2022-10-31T09:48:03;9.88;;;3.55;;
75900;SDS011;64577;50.594;5.570;2022-10-31T09:50:57;5.22;;;3.05;;
75900;SDS011;64577;50.594;5.570;2022-10-31T09:53:30;8.07;;;3.78;;
75900;SDS011;64577;50.594;5.570;2022-10-31T09:56:00;8.68;;;3.00;;
75900;SDS011;64577;50.594;5.570;2022-10-31T09:58:28;6.40;;;3.30;;
75900;SDS011;64577;50.594;5.570;2022-10-31T10:00:56;6.55;;;3.35;;
75900;SDS011;64577;50.594;5.570;2022-10-31T10:03:32;7.80;;;3.20;;
75900;SDS011;64577;50.594;5.570;2022-10-31T10:08:40;7.53;;;3.30;;
75900;SDS011;64577;50.594;5.570;2022-10-31T10:11:20;7.18;;;3.50;;
75900;SDS011;64577;50.594;5.570;2022-10-31T10:27:50;7.97;;;3.38;;
75900;SDS011;64577;50.594;5.570;2022-10-31T10:30:31;9.20;;;3.40;;
75900;SDS011;64577;50.594;5.570;2022-10-31T10:33:03;7.90;;;2.92;;
75900;SDS011;64577;50.594;5.570;2022-10-31T10:35:38;9.40;;;3.60;;
75900;SDS011;64577;50.594;5.570;2022-10-31T10:38:18;7.18;;;3.20;;
75900;SDS011;64577;50.594;5.570;2022-10-31T10:40:48;14.02;;;3.20;;
75900;SDS011;64577;50.594;5.570;2022-10-31T10:43:35;10.05;;;3.20;;
75900;SDS011;64577;50.594;5.570;2022-10-31T10:46:12;8.20;;;3.28;;
75900;SDS011;64577;50.594;5.570;2022-10-31T10:57:22;10.55;;;3.28;;
75900;SDS011;64577;50.594;5.570;2022-10-31T10:59:58;9.85;;;3.50;;
75900;SDS011;64577;50.594;5.570;2022-10-31T11:02:27;9.00;;;3.60;;
75900;SDS011;64577;50.594;5.570;2022-10-31T11:04:57;11.40;;;3.23;;
75900;SDS011;64577;50.594;5.570;2022-10-31T11:07:24;8.65;;;3.35;;
75900;SDS011;64577;50.594;5.570;2022-10-31T11:09:50;12.95;;;3.03;;
75900;SDS011;64577;50.594;5.570;2022-10-31T11:12:26;9.07;;;3.38;;
75900;SDS011;64577;50.594;5.570;2022-10-31T11:14:56;10.13;;;3.22;;
75900;SDS011;64577;50.594;5.570;2022-10-31T11:17:28;10.25;;;3.30;;
75900;SDS011;64577;50.594;5.570;2022-10-31T11:20:01;12.95;;;3.50;;
75900;SDS011;64577;50.594;5.570;2022-10-31T11:22:36;7.32;;;3.10;;
75900;SDS011;64577;50.594;5.570;2022-10-31T11:25:11;14.80;;;3.38;;
75900;SDS011;64577;50.594;5.570;2022-10-31T11:28:00;8.23;;;3.40;;
75900;SDS011;64577;50.594;5.570;2022-10-31T11:30:27;7.00;;;3.30;;
75900;SDS011;64577;50.594;5.570;2022-10-31T11:32:54;8.20;;;3.15;;
75900;SDS011;64577;50.594;5.570;2022-10-31T11:35:20;10.65;;;3.50;;
75900;SDS011;64577;50.594;5.570;2022-10-31T11:37:48;10.55;;;2.97;;
75900;SDS011;64577;50.594;5.570;2022-10-31T11:40:19;7.70;;;3.35;;
75900;SDS011;64577;50.594;5.570;2022-10-31T11:42:47;8.93;;;3.17;;
75900;SDS011;64577;50.594;5.570;2022-10-31T11:47:44;8.82;;;3.15;;
75900;SDS011;64577;50.594;5.570;2022-10-31T11:50:17;9.93;;;3.15;;
75900;SDS011;64577;50.594;5.570;2022-10-31T11:52:45;7.00;;;3.10;;
75900;SDS011;64577;50.594;5.570;2022-10-31T11:57:55;7.38;;;3.10;;
75900;SDS011;64577;50.594;5.570;2022-10-31T12:05:37;7.32;;;3.17;;
75900;SDS011;64577;50.594;5.570;2022-10-31T12:08:06;7.60;;;3.13;;
75900;SDS011;64577;50.594;5.570;2022-10-31T12:10:39;8.23;;;2.92;;
75900;SDS011;64577;50.594;5.570;2022-10-31T12:16:27;6.57;;;2.70;;
75900;SDS011;64577;50.594;5.570;2022-10-31T12:26:59;11.05;;;3.22;;
75900;SDS011;64577;50.594;5.570;2022-10-31T12:29:49;7.35;;;3.33;;
75900;SDS011;64577;50.594;5.570;2022-10-31T12:35:16;7.32;;;2.83;;
75900;SDS011;64577;50.594;5.570;2022-10-31T12:40:45;7.75;;;3.13;;
75900;SDS011;64577;50.594;5.570;2022-10-31T12:43:35;8.73;;;3.40;;
75900;SDS011;64577;50.594;5.570;2022-10-31T12:46:10;8.10;;;3.30;;
75900;SDS011;64577;50.594;5.570;2022-10-31T12:59:53;7.88;;;3.13;;
75900;SDS011;64577;50.594;5.570;2022-10-31T13:02:23;7.53;;;3.05;;
75900;SDS011;64577;50.594;5.570;2022-10-31T13:04:51;7.80;;;2.88;;
75900;SDS011;64577;50.594;5.570;2022-10-31T13:07:34;9.73;;;3.38;;
75900;SDS011;64577;50.594;5.570;2022-10-31T13:12:37;7.78;;;2.95;;
75900;SDS011;64577;50.594;5.570;2022-10-31T13:15:05;6.63;;;2.75;;
75900;SDS011;64577;50.594;5.570;2022-10-31T13:17:45;7.78;;;3.00;;
75900;SDS011;64577;50.594;5.570;2022-10-31T13:20:15;7.15;;;2.42;;
75900;SDS011;64577;50.594;5.570;2022-10-31T13:22:46;8.40;;;3.00;;
75900;SDS011;64577;50.594;5.570;2022-10-31T13:25:20;7.15;;;2.90;;
75900;SDS011;64577;50.594;5.570;2022-10-31T13:27:57;6.60;;;3.05;;
75900;SDS011;64577;50.594;5.570;2022-10-31T13:30:26;8.00;;;3.00;;
75900;SDS011;64577;50.594;5.570;2022-10-31T13:33:01;7.22;;;2.83;;
75900;SDS011;64577;50.594;5.570;2022-10-31T13:35:39;7.30;;;2.95;;
75900;SDS011;64577;50.594;5.570;2022-10-31T13:41:03;6.82;;;2.80;;
75900;SDS011;64577;50.594;5.570;2022-10-31T13:46:40;7.05;;;2.90;;
75900;SDS011;64577;50.594;5.570;2022-10-31T13:49:21;8.40;;;3.25;;
75900;SDS011;64577;50.594;5.570;2022-10-31T13:51:50;7.30;;;2.85;;
75900;SDS011;64577;50.594;5.570;2022-10-31T13:54:31;8.57;;;2.78;;
75900;SDS011;64577;50.594;5.570;2022-10-31T13:56:58;6.18;;;2.85;;
75900;SDS011;64577;50.594;5.570;2022-10-31T13:59:25;8.50;;;3.17;;
75900;SDS011;64577;50.594;5.570;2022-10-31T14:04:22;8.88;;;3.40;;
75900;SDS011;64577;50.594;5.570;2022-10-31T14:09:39;6.85;;;2.80;;
75900;SDS011;64577;50.594;5.570;2022-10-31T14:12:23;7.82;;;2.72;;
75900;SDS011;64577;50.594;5.570;2022-10-31T14:14:52;10.05;;;2.83;;
75900;SDS011;64577;50.594;5.570;2022-10-31T14:17:33;6.63;;;2.65;;
75900;SDS011;64577;50.594;5.570;2022-10-31T14:22:35;7.80;;;2.80;;
75900;SDS011;64577;50.594;5.570;2022-10-31T14:25:23;7.97;;;3.13;;
75900;SDS011;64577;50.594;5.570;2022-10-31T14:27:56;8.48;;;3.03;;
75900;SDS011;64577;50.594;5.570;2022-10-31T14:30:24;11.18;;;3.15;;
75900;SDS011;64577;50.594;5.570;2022-10-31T14:32:55;8.73;;;2.90;;
75900;SDS011;64577;50.594;5.570;2022-10-31T14:35:46;8.70;;;2.80;;
75900;SDS011;64577;50.594;5.570;2022-10-31T14:38:37;7.88;;;2.72;;
75900;SDS011;64577;50.594;5.570;2022-10-31T14:41:21;7.22;;;3.08;;
75900;SDS011;64577;50.594;5.570;2022-10-31T14:51:59;9.00;;;3.10;;
75900;SDS011;64577;50.594;5.570;2022-10-31T14:56:56;6.70;;;2.70;;
75900;SDS011;64577;50.594;5.570;2022-10-31T14:59:28;7.65;;;3.03;;
75900;SDS011;64577;50.594;5.570;2022-10-31T15:02:01;7.10;;;2.60;;
75900;SDS011;64577;50.594;5.570;2022-10-31T15:04:46;5.53;;;2.80;;
75900;SDS011;64577;50.594;5.570;2022-10-31T15:07:17;7.53;;;2.97;;
75900;SDS011;64577;50.594;5.570;2022-10-31T15:09:54;9.23;;;2.78;;
75900;SDS011;64577;50.594;5.570;2022-10-31T15:12:28;9.52;;;3.05;;
75900;SDS011;64577;50.594;5.570;2022-10-31T15:14:54;8.38;;;2.90;;
75900;SDS011;64577;50.594;5.570;2022-10-31T15:17:21;6.18;;;2.85;;
75900;SDS011;64577;50.594;5.570;2022-10-31T15:19:48;6.07;;;2.65;;
75900;SDS011;64577;50.594;5.570;2022-10-31T15:22:14;11.50;;;2.65;;
75900;SDS011;64577;50.594;5.570;2022-10-31T15:24:45;7.22;;;2.78;;
75900;SDS011;64577;50.594;5.570;2022-10-31T15:27:15;8.68;;;2.85;;
75900;SDS011;64577;50.594;5.570;2022-10-31T15:29:49;8.93;;;2.90;;
75900;SDS011;64577;50.594;5.570;2022-10-31T15:32:25;6.47;;;2.70;;
75900;SDS011;64577;50.594;5.570;2022-10-31T15:34:52;7.43;;;2.90;;
75900;SDS011;64577;50.594;5.570;2022-10-31T15:37:20;5.95;;;2.70;;
75900;SDS011;64577;50.594;5.570;2022-10-31T15:39:47;9.13;;;3.00;;
75900;SDS011;64577;50.594;5.570;2022-10-31T15:42:16;8.27;;;2.70;;
75900;SDS011;64577;50.594;5.570;2022-10-31T15:44:43;8.65;;;2.95;;
75900;SDS011;64577;50.594;5.570;2022-10-31T15:47:22;6.63;;;2.60;;
75900;SDS011;64577;50.594;5.570;2022-10-31T15:49:53;8.07;;;2.57;;
75900;SDS011;64577;50.594;5.570;2022-10-31T15:52:39;10.82;;;3.10;;
75900;SDS011;64577;50.594;5.570;2022-10-31T15:58:14;6.45;;;2.53;;
75900;SDS011;64577;50.594;5.570;2022-10-31T16:00:37;9.43;;;2.50;;
75900;SDS011;64577;50.594;5.570;2022-10-31T16:05:50;7.80;;;2.50;;
75900;SDS011;64577;50.594;5.570;2022-10-31T16:08:25;8.52;;;2.63;;
75900;SDS011;64577;50.594;5.570;2022-10-31T16:10:53;6.70;;;2.45;;
75900;SDS011;64577;50.594;5.570;2022-10-31T16:13:23;6.38;;;2.25;;
75900;SDS011;64577;50.594;5.570;2022-10-31T16:15:54;6.43;;;2.80;;
75900;SDS011;64577;50.594;5.570;2022-10-31T16:18:23;7.45;;;2.80;;
75900;SDS011;64577;50.594;5.570;2022-10-31T16:20:50;6.15;;;2.58;;
75900;SDS011;64577;50.594;5.570;2022-10-31T16:23:20;7.03;;;2.70;;
75900;SDS011;64577;50.594;5.570;2022-10-31T16:25:49;7.68;;;2.60;;
75900;SDS011;64577;50.594;5.570;2022-10-31T16:30:47;6.43;;;2.72;;
75900;SDS011;64577;50.594;5.570;2022-10-31T16:35:56;11.38;;;2.90;;
75900;SDS011;64577;50.594;5.570;2022-10-31T16:38:23;6.80;;;2.45;;
75900;SDS011;64577;50.594;5.570;2022-10-31T16:40:49;7.30;;;2.70;;
75900;SDS011;64577;50.594;5.570;2022-10-31T16:43:15;6.47;;;2.70;;
75900;SDS011;64577;50.594;5.570;2022-10-31T16:45:43;6.95;;;3.00;;
75900;SDS011;64577;50.594;5.570;2022-10-31T16:48:11;12.48;;;2.72;;
75900;SDS011;64577;50.594;5.570;2022-10-31T16:50:39;8.07;;;2.40;;
75900;SDS011;64577;50.594;5.570;2022-10-31T16:53:05;7.40;;;2.53;;
75900;SDS011;64577;50.594;5.570;2022-10-31T16:55:31;7.07;;;3.47;;
75900;SDS011;64577;50.594;5.570;2022-10-31T16:57:59;9.05;;;2.80;;
75900;SDS011;64577;50.594;5.570;2022-10-31T17:00:26;13.35;;;3.20;;
75900;SDS011;64577;50.594;5.570;2022-10-31T17:02:53;6.85;;;2.78;;
75900;SDS011;64577;50.594;5.570;2022-10-31T17:05:21;6.85;;;2.67;;
75900;SDS011;64577;50.594;5.570;2022-10-31T17:07:53;6.20;;;2.40;;
75900;SDS011;64577;50.594;5.570;2022-10-31T17:10:19;5.72;;;2.60;;
75900;SDS011;64577;50.594;5.570;2022-10-31T17:12:45;8.65;;;2.58;;
75900;SDS011;64577;50.594;5.570;2022-10-31T17:17:46;6.07;;;2.90;;
75900;SDS011;64577;50.594;5.570;2022-10-31T17:20:19;8.38;;;2.97;;
75900;SDS011;64577;50.594;5.570;2022-10-31T17:22:46;6.95;;;2.60;;
75900;SDS011;64577;50.594;5.570;2022-10-31T17:25:13;7.90;;;3.10;;
75900;SDS011;64577;50.594;5.570;2022-10-31T17:27:40;8.35;;;2.97;;
75900;SDS011;64577;50.594;5.570;2022-10-31T17:30:07;6.70;;;2.95;;
75900;SDS011;64577;50.594;5.570;2022-10-31T17:32:32;9.02;;;3.20;;
75900;SDS011;64577;50.594;5.570;2022-10-31T17:34:58;8.25;;;3.13;;
75900;SDS011;64577;50.594;5.570;2022-10-31T17:37:23;7.90;;;3.00;;
75900;SDS011;64577;50.594;5.570;2022-10-31T17:39:48;7.40;;;3.40;;
75900;SDS011;64577;50.594;5.570;2022-10-31T17:42:14;8.77;;;3.25;;
75900;SDS011;64577;50.594;5.570;2022-10-31T17:44:39;6.80;;;2.92;;
75900;SDS011;64577;50.594;5.570;2022-10-31T17:47:05;8.63;;;3.30;;
75900;SDS011;64577;50.594;5.570;2022-10-31T17:49:30;9.57;;;2.95;;
75900;SDS011;64577;50.594;5.570;2022-10-31T17:51:55;7.65;;;2.95;;
75900;SDS011;64577;50.594;5.570;2022-10-31T17:54:21;7.13;;;2.78;;
75900;SDS011;64577;50.594;5.570;2022-10-31T17:56:47;7.40;;;3.05;;
75900;SDS011;64577;50.594;5.570;2022-10-31T17:59:13;10.23;;;2.92;;
75900;SDS011;64577;50.594;5.570;2022-10-31T18:01:38;10.20;;;2.92;;
75900;SDS011;64577;50.594;5.570;2022-10-31T18:04:03;9.02;;;3.08;;
75900;SDS011;64577;50.594;5.570;2022-10-31T18:06:29;7.97;;;3.58;;
75900;SDS011;64577;50.594;5.570;2022-10-31T18:08:54;6.53;;;2.80;;
75900;SDS011;64577;50.594;5.570;2022-10-31T18:11:22;6.40;;;3.10;;
75900;SDS011;64577;50.594;5.570;2022-10-31T18:13:52;7.70;;;2.83;;
75900;SDS011;64577;50.594;5.570;2022-10-31T18:16:20;7.70;;;2.92;;
75900;SDS011;64577;50.594;5.570;2022-10-31T18:18:49;8.05;;;3.25;;
75900;SDS011;64577;50.594;5.570;2022-10-31T18:21:15;6.50;;;3.00;;
75900;SDS011;64577;50.594;5.570;2022-10-31T18:23:41;8.75;;;3.13;;
75900;SDS011;64577;50.594;5.570;2022-10-31T18:26:07;10.00;;;3.25;;
75900;SDS011;64577;50.594;5.570;2022-10-31T18:28:32;7.30;;;3.10;;
75900;SDS011;64577;50.594;5.570;2022-10-31T18:30:58;6.15;;;2.60;;
75900;SDS011;64577;50.594;5.570;2022-10-31T18:33:24;7.03;;;2.70;;
75900;SDS011;64577;50.594;5.570;2022-10-31T18:35:49;8.25;;;2.85;;
75900;SDS011;64577;50.594;5.570;2022-10-31T18:38:15;6.85;;;3.38;;
75900;SDS011;64577;50.594;5.570;2022-10-31T18:40:40;8.55;;;2.97;;
75900;SDS011;64577;50.594;5.570;2022-10-31T18:43:06;7.65;;;3.55;;
75900;SDS011;64577;50.594;5.570;2022-10-31T18:45:31;8.48;;;3.00;;
75900;SDS011;64577;50.594;5.570;2022-10-31T18:47:57;7.70;;;3.55;;
75900;SDS011;64577;50.594;5.570;2022-10-31T18:50:22;7.80;;;3.22;;
75900;SDS011;64577;50.594;5.570;2022-10-31T18:52:48;6.53;;;3.05;;
75900;SDS011;64577;50.594;5.570;2022-10-31T18:55:13;10.23;;;3.35;;
75900;SDS011;64577;50.594;5.570;2022-10-31T18:57:39;6.60;;;3.10;;
75900;SDS011;64577;50.594;5.570;2022-10-31T19:00:04;7.68;;;3.00;;
75900;SDS011;64577;50.594;5.570;2022-10-31T19:02:30;8.30;;;2.75;;
75900;SDS011;64577;50.594;5.570;2022-10-31T19:04:56;7.97;;;2.92;;
75900;SDS011;64577;50.594;5.570;2022-10-31T19:07:21;8.43;;;3.13;;
75900;SDS011;64577;50.594;5.570;2022-10-31T19:09:47;7.20;;;2.90;;
75900;SDS011;64577;50.594;5.570;2022-10-31T19:12:12;7.82;;;3.20;;
75900;SDS011;64577;50.594;5.570;2022-10-31T19:14:38;6.95;;;2.60;;
75900;SDS011;64577;50.594;5.570;2022-10-31T19:17:03;8.77;;;3.50;;
75900;SDS011;64577;50.594;5.570;2022-10-31T19:19:28;6.15;;;2.78;;
75900;SDS011;64577;50.594;5.570;2022-10-31T19:21:54;6.30;;;2.85;;
75900;SDS011;64577;50.594;5.570;2022-10-31T19:24:20;6.13;;;2.92;;
75900;SDS011;64577;50.594;5.570;2022-10-31T19:26:46;6.30;;;2.75;;
75900;SDS011;64577;50.594;5.570;2022-10-31T19:29:12;8.32;;;3.13;;
75900;SDS011;64577;50.594;5.570;2022-10-31T19:31:37;8.50;;;2.75;;
75900;SDS011;64577;50.594;5.570;2022-10-31T19:34:03;8.52;;;3.20;;
75900;SDS011;64577;50.594;5.570;2022-10-31T19:36:28;7.35;;;2.72;;
75900;SDS011;64577;50.594;5.570;2022-10-31T19:38:54;8.00;;;2.97;;
75900;SDS011;64577;50.594;5.570;2022-10-31T19:41:26;10.23;;;3.17;;
75900;SDS011;64577;50.594;5.570;2022-10-31T19:43:53;9.40;;;3.10;;
75900;SDS011;64577;50.594;5.570;2022-10-31T19:46:20;6.32;;;2.60;;
75900;SDS011;64577;50.594;5.570;2022-10-31T19:48:46;7.32;;;3.03;;
75900;SDS011;64577;50.594;5.570;2022-10-31T19:51:15;7.38;;;2.80;;
75900;SDS011;64577;50.594;5.570;2022-10-31T19:53:42;8.95;;;2.90;;
75900;SDS011;64577;50.594;5.570;2022-10-31T19:56:09;8.13;;;2.88;;
75900;SDS011;64577;50.594;5.570;2022-10-31T19:58:39;6.40;;;2.92;;
75900;SDS011;64577;50.594;5.570;2022-10-31T20:01:12;7.70;;;2.88;;
75900;SDS011;64577;50.594;5.570;2022-10-31T20:03:42;6.47;;;3.15;;
75900;SDS011;64577;50.594;5.570;2022-10-31T20:06:13;7.65;;;2.67;;
75900;SDS011;64577;50.594;5.570;2022-10-31T20:08:42;7.88;;;2.80;;
75900;SDS011;64577;50.594;5.570;2022-10-31T20:11:07;7.60;;;2.88;;
75900;SDS011;64577;50.594;5.570;2022-10-31T20:13:33;8.00;;;3.33;;
75900;SDS011;64577;50.594;5.570;2022-10-31T20:15:59;7.72;;;3.10;;
75900;SDS011;64577;50.594;5.570;2022-10-31T20:18:27;5.80;;;3.05;;
75900;SDS011;64577;50.594;5.570;2022-10-31T20:20:53;7.80;;;3.05;;
75900;SDS011;64577;50.594;5.570;2022-10-31T20:23:24;7.07;;;2.90;;
75900;SDS011;64577;50.594;5.570;2022-10-31T20:25:49;9.45;;;3.35;;
75900;SDS011;64577;50.594;5.570;2022-10-31T20:28:15;8.73;;;3.20;;
75900;SDS011;64577;50.594;5.570;2022-10-31T20:30:40;7.95;;;2.95;;
75900;SDS011;64577;50.594;5.570;2022-10-31T20:33:06;11.13;;;2.92;;
75900;SDS011;64577;50.594;5.570;2022-10-31T20:35:34;10.73;;;3.47;;
75900;SDS011;64577;50.594;5.570;2022-10-31T20:38:00;6.60;;;2.70;;
75900;SDS011;64577;50.594;5.570;2022-10-31T20:40:26;10.00;;;2.92;;
75900;SDS011;64577;50.594;5.570;2022-10-31T20:42:51;8.15;;;3.00;;
75900;SDS011;64577;50.594;5.570;2022-10-31T20:45:16;8.90;;;2.95;;
75900;SDS011;64577;50.594;5.570;2022-10-31T20:47:41;8.35;;;2.97;;
75900;SDS011;64577;50.594;5.570;2022-10-31T20:50:07;9.45;;;2.88;;
75900;SDS011;64577;50.594;5.570;2022-10-31T20:52:32;7.95;;;3.50;;
75900;SDS011;64577;50.594;5.570;2022-10-31T20:54:58;9.05;;;2.83;;
75900;SDS011;64577;50.594;5.570;2022-10-31T20:57:24;7.47;;;3.10;;
75900;SDS011;64577;50.594;5.570;2022-10-31T20:59:49;8.65;;;3.50;;
75900;SDS011;64577;50.594;5.570;2022-10-31T21:02:14;9.77;;;2.80;;
75900;SDS011;64577;50.594;5.570;2022-10-31T21:04:40;11.27;;;3.15;;
75900;SDS011;64577;50.594;5.570;2022-10-31T21:07:05;7.50;;;2.90;;
75900;SDS011;64577;50.594;5.570;2022-10-31T21:09:30;9.85;;;3.40;;
75900;SDS011;64577;50.594;5.570;2022-10-31T21:11:56;7.10;;;3.17;;
75900;SDS011;64577;50.594;5.570;2022-10-31T21:14:21;8.98;;;3.40;;
75900;SDS011;64577;50.594;5.570;2022-10-31T21:16:46;9.98;;;3.30;;
75900;SDS011;64577;50.594;5.570;2022-10-31T21:19:12;7.80;;;3.40;;
75900;SDS011;64577;50.594;5.570;2022-10-31T21:21:37;7.63;;;2.85;;
75900;SDS011;64577;50.594;5.570;2022-10-31T21:24:13;6.72;;;3.08;;
75900;SDS011;64577;50.594;5.570;2022-10-31T21:26:43;6.28;;;2.97;;
75900;SDS011;64577;50.594;5.570;2022-10-31T21:29:11;9.32;;;3.17;;
75900;SDS011;64577;50.594;5.570;2022-10-31T21:31:38;11.77;;;2.88;;
75900;SDS011;64577;50.594;5.570;2022-10-31T21:34:04;9.07;;;3.42;;
75900;SDS011;64577;50.594;5.570;2022-10-31T21:36:29;10.27;;;3.17;;
75900;SDS011;64577;50.594;5.570;2022-10-31T21:38:55;8.65;;;3.70;;
75900;SDS011;64577;50.594;5.570;2022-10-31T21:41:21;8.55;;;3.13;;
75900;SDS011;64577;50.594;5.570;2022-10-31T21:43:48;7.35;;;2.90;;
75900;SDS011;64577;50.594;5.570;2022-10-31T21:46:18;8.23;;;3.33;;
75900;SDS011;64577;50.594;5.570;2022-10-31T21:48:45;11.13;;;3.35;;
75900;SDS011;64577;50.594;5.570;2022-10-31T21:51:16;6.03;;;3.25;;
75900;SDS011;64577;50.594;5.570;2022-10-31T21:53:46;8.25;;;3.55;;
75900;SDS011;64577;50.594;5.570;2022-10-31T21:56:31;8.00;;;3.25;;
75900;SDS011;64577;50.594;5.570;2022-10-31T21:58:57;5.90;;;2.60;;